Weersoverzicht van METAR-stations binnen 150 km

EHRD - Rotterdam Airport
Afstand tot weerstation: ZO 28 km
Update: 03-08-2021 19:25
Overwegend bewolkt
Overwegend bewolkt
 Wind van O
Wind: O 15 km/h
Temperatuur: 18°C
Dauwpunt: 13°C
Luchtvochtigheid: 73%
Luchtdruk: 1012 hPa
Bewolking: Overwegend bewolkt
Zicht: 10 km
Details Bewolking: Gedeeltelijk bewolkt 914 m
Overwegend bewolkt 1128 m
2021/08/03 17:25 EHRD 031725Z AUTO 08008KT 9999 SCT030 BKN037 18/13 Q1012 NOSIG
EHSC - Goeree Le Sea (Platform ter hoogte van Zeeland)
Afstand tot weerstation: WZW 36 km
Update: 03-08-2021 19:25

 Wind van NO
Wind: NO 19 km/h
Temperatuur: 17°C
Dauwpunt: 10°C
Luchtvochtigheid: 64%
Luchtdruk: 1013 hPa
Zicht: 10 km
2021/08/03 17:25 EHSC 031725Z AUTO 04010KT 9999 ///////// 17/10 Q1013 W19/H7
 
EHAM - A'dam Schiphol
Afstand tot weerstation: ONO 51 km
Update: 03-08-2021 19:25
Enkele wolken
Enkele wolken
 Wind van ONO
Wind: ONO 11 km/h
Temperatuur: 18°C
Dauwpunt: 12°C
Luchtvochtigheid: 68%
Luchtdruk: 1013 hPa
Bewolking: Enkele wolken
Zicht: 10 km
Details Bewolking: Enkele wolken 853 m
2021/08/03 17:25 EHAM 031725Z 07006KT 9999 FEW028 18/12 Q1013 NOSIG
EHSA - Euro Platform (Ter hoogte van Zeeland)
Afstand tot weerstation: W 58 km
Update: 03-08-2021 19:25

 Wind van NNO
Wind: NNO 17 km/h
Temperatuur: 17°C
Dauwpunt: 10°C
Luchtvochtigheid: 64%
Luchtdruk: 1013 hPa
Zicht: 10 km
2021/08/03 17:25 EHSA 031725Z AUTO 03009KT 9999 ///////// 17/10 Q1013 W18/H8
 
EHPG - P11-B Sea (Platform ter hoogte van Zuid Holland)
Afstand tot weerstation: NW 60 km
Update: 03-08-2021 19:25
Helder
Helder
 Wind van NO
Wind: NO 17 km/h
Temperatuur: 17°C
Dauwpunt: 11°C
Luchtvochtigheid: 68%
Luchtdruk: 1013 hPa
Bewolking: Helder
Zicht: 10 km
2021/08/03 17:25 EHPG 031725Z AUTO 05009KT 9999 NCD 17/11 Q1013
EHWO - Vliegveld Woensdrecht
Afstand tot weerstation: ZZO 65 km
Update: 03-08-2021 19:25
Gedeeltelijk bewolkt
Gedeeltelijk bewolkt
 Wind van NNW
Wind: NNW 11 km/h
Temperatuur: 20°C
Dauwpunt: 11°C
Luchtvochtigheid: 56%
Luchtdruk: 1012 hPa
Bewolking: Gedeeltelijk bewolkt
Zicht: 10 km
Details Bewolking: Gedeeltelijk bewolkt 3048 m
2021/08/03 17:25 EHWO 031725Z AUTO 34006KT 290V040 9999 SCT100 20/11 Q1012 BLU
 
EHGR - Vliegveld Gilze-Rijen
Afstand tot weerstation: ZO 79 km
Update: 03-08-2021 19:25
Gedeeltelijk bewolkt
Gedeeltelijk bewolkt
 Wind van ONO
Wind: ONO 11 km/h
Temperatuur: 19°C
Dauwpunt: 13°C
Luchtvochtigheid: 68%
Luchtdruk: 1012 hPa
Bewolking: Gedeeltelijk bewolkt
Zicht: 10 km
Details Bewolking: Enkele wolken 914 m
Gedeeltelijk bewolkt 1067 m
2021/08/03 17:25 EHGR 031725Z AUTO 06006KT 020V110 9999 FEW030 SCT035 19/13 Q1012 BLU
EHQE - Hoorn-A Sea (Platform ter hoogte van Noord Holland)
Afstand tot weerstation: N 103 km
Update: 03-08-2021 19:25
Gedeeltelijk bewolkt
Gedeeltelijk bewolkt
 Wind van Variabel
Wind: Variabel 0 km/h
Temperatuur: 17°C
Dauwpunt: 10°C
Luchtvochtigheid: 64%
Luchtdruk: 1013 hPa
Bewolking: Gedeeltelijk bewolkt
Zicht: 10 km
2021/08/03 17:25 EHQE 031725Z AUTO /////KT 9999 NSC 17/10 Q1013
 
EHKD - Marinebasis De Kooy (Den Helder)
Afstand tot weerstation: NNO 114 km
Update: 03-08-2021 19:25
Zwaar bewolkt
Zwaar bewolkt
 Wind van NNO
Wind: NNO 15 km/h
Temperatuur: 18°C
Dauwpunt: 11°C
Luchtvochtigheid: 64%
Luchtdruk: 1013 hPa
Bewolking: Zwaar bewolkt
Zicht: 10 km
Details Bewolking: Overwegend bewolkt 2042 m
Zwaar bewolkt 2195 m
2021/08/03 17:25 EHKD 031725Z AUTO 03008KT 350V080 9999 BKN067 OVC072 18/11 Q1013 BLU NOSIG
EHEH - Vliegveld Eindhoven
Afstand tot weerstation: OZO 115 km
Update: 03-08-2021 19:25
Overwegend bewolkt
Overwegend bewolkt
 Wind van ONO
Wind: ONO 11 km/h
Temperatuur: 19°C
Dauwpunt: 12°C
Luchtvochtigheid: 64%
Luchtdruk: 1012 hPa
Bewolking: Overwegend bewolkt
Zicht: 10 km
Details Bewolking: Overwegend bewolkt 1463 m
Overwegend bewolkt 1615 m
Overwegend bewolkt 2621 m
2021/08/03 17:25 EHEH 031725Z AUTO 06006KT 340V070 9999 BKN048 BKN053 BKN086 19/12 Q1012 BLU TEMPO FEW025CB BKN030
 
EHVK - Vliegveld Volkel
Afstand tot weerstation: OZO 124 km
Update: 03-08-2021 19:25
Zwaar bewolkt
Zwaar bewolkt
 Wind van NNO
Wind: NNO 6 km/h
Temperatuur: 18°C
Dauwpunt: 12°C
Luchtvochtigheid: 68%
Luchtdruk: 1012 hPa
Bewolking: Zwaar bewolkt
Zicht: 10 km
Details Bewolking: Zwaar bewolkt 1829 m
2021/08/03 17:25 EHVK 031725Z AUTO 03003KT 9999 OVC060 18/12 Q1012 BLU
EHDL - Vliegveld Deelen
Afstand tot weerstation: O 128 km
Update: 03-08-2021 19:25
Zwaar bewolkt
Zwaar bewolkt
 Wind van Variabel
Wind: Variabel 4 km/h
Temperatuur: 17°C
Dauwpunt: 14°C
Luchtvochtigheid: 83%
Luchtdruk: 1013 hPa
Bewolking: Zwaar bewolkt
Zicht: 10 km
Details Bewolking: Zwaar bewolkt 1585 m
2021/08/03 17:25 EHDL 031725Z AUTO VRB02KT 9999 OVC052 17/14 Q1013 BLU